Leesburg, Kentucky
Current Conditions -  °F | °C
As of 7:15 PM on Sunday 23 Nov 2014 (Local Time) from KIOB Reporting Station
Light Rain Light Rain  
Wind Chill: 54°   Ceiling: 8500
Heat Index: 54°   Visibility: 10mi
Dew Point: 54°   Wind: 13mph
Humidity: 100%   Direction: 140°SE
Pressure: 29.51"   Gusts: NA
Location:  38.4145°N, 84.2859°W
Report Text: KIOB 240015Z AUTO 14011KT 10SM -RA SCT050 BKN085 OVC110 12/12 A2951 RMK AO2 P0003
Loading
Personal Weather Stations






























Interactive Weather Map New forecast layout! Learn more

10-Day Weather Forecast

Advertisements
Track Severe Weather on mobile